Time;durP1;ratioP1;P1;durP2;ratioP2;P2;SDS_P1;SDS_P2;PMS_P1;PMS_P2;Temp;Humidity;BMP_temperature;BMP_pressure;BME280_temperature;BME280_humidity;BME280_pressure;Samples;Min_cycle;Max_cycle;Signal;HPM_P1;HPM_P2
2021/05/09 00:01:27;;;;;;;2.60;2.35;;;8.90;58.40;;;8.15;40.89;94925.72;5038666;28;20573;-81
2021/05/09 00:03:55;;;;;;;2.65;2.35;;;8.90;58.30;;;8.22;40.88;94935.47;5038328;28;20288;-81
2021/05/09 00:06:23;;;;;;;2.47;2.28;;;8.80;58.20;;;8.16;40.76;94926.53;5021975;28;20352;-81
2021/05/09 00:08:50;;;;;;;2.40;2.20;;;8.80;58.50;;;8.18;41.36;94935.81;5055164;28;20223;-82
2021/05/09 00:11:17;;;;;;;2.30;2.10;;;8.80;58.50;;;8.14;41.29;94938.94;5071511;28;20207;-81
2021/05/09 00:13:45;;;;;;;3.15;2.40;;;8.80;58.40;;;8.10;41.34;94930.66;5027575;28;20228;-81
2021/05/09 00:16:11;;;;;;;2.30;2.10;;;8.80;58.50;;;8.08;40.92;94935.25;5015043;28;20196;-81
2021/05/09 00:18:38;;;;;;;2.45;2.03;;;8.80;58.60;;;8.06;40.81;94925.97;5013075;28;20356;-81
2021/05/09 00:21:05;;;;;;;3.20;2.08;;;8.70;58.40;;;8.02;40.74;94933.34;5054917;28;20219;-81
2021/05/09 00:23:32;;;;;;;2.42;2.00;;;8.70;58.50;;;8.01;40.98;94934.31;5038386;28;20353;-81
2021/05/09 00:25:59;;;;;;;4.00;2.78;;;8.70;58.60;;;7.97;40.85;94925.19;5038009;28;20199;-81
2021/05/09 00:28:26;;;;;;;2.90;2.53;;;8.70;58.80;;;7.95;41.47;94929.81;5038600;28;20746;-81
2021/05/09 00:30:52;;;;;;;4.55;2.55;;;8.60;58.80;;;7.96;42.05;94934.03;5038547;28;20222;-81
2021/05/09 00:33:19;;;;;;;3.28;2.40;;;8.60;59.10;;;7.96;41.66;94928.81;5021094;28;20219;-81
2021/05/09 00:35:46;;;;;;;2.90;2.35;;;8.60;59.20;;;7.94;41.68;94930.78;5033629;28;20196;-81
2021/05/09 00:38:13;;;;;;;3.00;2.70;;;8.60;59.30;;;7.93;42.22;94929.97;5053860;28;20250;-81
2021/05/09 00:40:40;;;;;;;3.17;2.72;;;8.70;59.60;;;7.94;42.36;94928.19;5054435;28;20683;-81
2021/05/09 00:43:07;;;;;;;2.90;2.60;;;8.60;59.80;;;7.91;42.55;94928.50;5021379;28;20520;-81
2021/05/09 00:45:39;;;;;;;3.17;2.65;;;8.60;59.90;;;7.90;42.53;94932.94;5034361;28;20208;-81
2021/05/09 00:48:11;;;;;;;3.63;2.42;;;8.60;60.00;;;7.89;43.12;94933.91;5034409;28;20227;-80
2021/05/09 00:50:38;;;;;;;2.90;2.55;;;8.50;60.70;;;7.87;43.42;94938.50;5034326;28;20295;-81
2021/05/09 00:53:07;;;;;;;3.30;2.60;;;8.50;60.30;;;7.82;43.24;94930.38;5053632;28;20558;-81
2021/05/09 00:55:37;;;;;;;3.35;2.60;;;8.50;60.30;;;7.83;42.78;94932.00;5037591;28;20211;-81
2021/05/09 00:58:06;;;;;;;3.78;2.60;;;8.50;60.30;;;7.82;43.27;94935.59;5054511;28;20250;-81
2021/05/09 01:00:35;;;;;;;2.90;2.60;;;8.50;60.30;;;7.81;43.28;94933.97;5031298;28;20238;-80
2021/05/09 01:03:07;;;;;;;3.13;2.70;;;8.50;60.30;;;7.80;43.09;94938.38;5037818;28;20225;-80
2021/05/09 01:05:35;;;;;;;3.53;2.80;;;8.50;60.70;;;7.81;43.55;94936.56;5049850;28;20208;-81
2021/05/09 01:08:03;;;;;;;2.83;2.50;;;8.50;60.70;;;7.76;43.30;94928.47;5017840;28;20216;-81
2021/05/09 01:10:33;;;;;;;3.63;2.70;;;8.40;60.50;;;7.74;43.20;94933.88;5034922;28;20568;-81
2021/05/09 01:13:00;;;;;;;2.80;2.30;;;8.40;60.50;;;7.77;42.73;94937.94;5054220;28;20243;-80
2021/05/09 01:15:29;;;;;;;2.63;2.42;;;8.50;60.40;;;7.77;43.14;94933.50;5037816;28;20231;-80
2021/05/09 01:17:57;;;;;;;5.25;3.00;;;8.50;60.40;;;7.74;42.78;94930.41;5034372;28;20626;-81
2021/05/09 01:20:23;;;;;;;3.17;2.60;;;8.40;60.50;;;7.74;42.85;94930.41;5050782;28;20239;-81
2021/05/09 01:22:53;;;;;;;3.42;2.58;;;8.40;60.50;;;7.71;43.31;94931.59;5050439;28;20697;-81
2021/05/09 01:25:20;;;;;;;3.45;2.97;;;8.40;60.60;;;7.68;43.06;94926.72;5051324;28;20214;-81
2021/05/09 01:27:47;;;;;;;4.18;2.72;;;8.30;60.60;;;7.65;43.54;94927.88;5047362;28;20231;-81
2021/05/09 01:30:16;;;;;;;4.38;2.70;;;8.40;60.70;;;7.63;43.70;94916.78;5026179;28;20711;-80
2021/05/09 01:32:43;;;;;;;3.80;2.95;;;8.40;60.90;;;7.62;43.60;94923.00;5021722;28;20223;-80
2021/05/09 01:35:11;;;;;;;4.30;2.55;;;8.30;60.90;;;7.61;43.41;94918.75;5033389;28;20227;-81
2021/05/09 01:37:39;;;;;;;3.40;2.78;;;8.30;60.90;;;7.60;43.19;94918.94;5036353;28;20233;-81
2021/05/09 01:40:07;;;;;;;3.05;2.70;;;8.30;61.00;;;7.58;43.39;94918.28;5035017;28;20214;-80
2021/05/09 01:42:34;;;;;;;4.70;3.05;;;8.30;60.90;;;7.56;42.94;94923.69;5036676;28;20225;-80
2021/05/09 01:45:01;;;;;;;2.67;2.42;;;8.30;60.80;;;7.55;42.85;94922.06;5037172;28;20298;-80
2021/05/09 01:47:29;;;;;;;3.25;2.47;;;8.20;60.80;;;7.51;42.76;94918.97;5037030;28;20591;-81
2021/05/09 01:49:56;;;;;;;2.58;2.35;;;8.20;60.80;;;7.48;42.76;94923.72;5032681;28;20200;-80
2021/05/09 01:52:23;;;;;;;3.53;2.90;;;8.20;60.90;;;7.46;43.17;94923.91;5033397;28;20219;-80
2021/05/09 01:54:51;;;;;;;3.83;2.72;;;8.10;60.90;;;7.43;43.40;94915.63;5037026;28;20213;-81
2021/05/09 01:57:19;;;;;;;3.15;2.85;;;8.10;61.00;;;7.42;43.05;94913.97;5037066;28;20237;-80
2021/05/09 01:59:49;;;;;;;3.13;2.83;;;8.10;61.00;;;7.37;43.18;94911.88;5033104;28;20692;-81
2021/05/09 02:02:17;;;;;;;3.15;2.85;;;8.10;61.10;;;7.37;43.36;94915.31;5032452;28;20231;-80
2021/05/09 02:04:52;;;;;;;4.43;2.63;;;8.10;61.20;;;7.35;43.80;94916.47;5038155;28;20221;-81
2021/05/09 02:07:21;;;;;;;2.90;2.60;;;8.00;61.40;;;7.34;43.69;94913.03;5053459;28;20276;-81
2021/05/09 02:09:49;;;;;;;2.95;2.70;;;8.00;61.20;;;7.32;43.52;94917.66;5032900;28;20242;-81
2021/05/09 02:12:18;;;;;;;4.18;2.90;;;8.00;61.30;;;7.29;43.73;94912.75;5009449;28;20706;-81
2021/05/09 02:14:54;;;;;;;3.38;2.92;;;8.00;61.30;;;7.28;43.61;94918.94;5025698;28;20195;-81
2021/05/09 02:17:22;;;;;;;3.45;2.80;;;8.00;61.40;;;7.25;43.82;94921.91;5053403;28;20269;-81
2021/05/09 02:20:04;;;;;;;6.30;3.33;;;7.90;61.40;;;7.21;44.00;94912.78;5037750;28;20681;-81
2021/05/09 02:22:33;;;;;;;4.15;3.45;;;8.00;61.70;;;7.18;44.76;94918.38;5037433;28;20651;-80
2021/05/09 02:25:00;;;;;;;4.22;3.15;;;7.90;61.70;;;7.14;44.52;94920.50;5046025;28;20198;-80
2021/05/09 02:27:26;;;;;;;5.07;3.50;;;7.90;61.80;;;7.11;44.59;94915.59;5036627;28;20233;-80
2021/05/09 02:29:53;;;;;;;6.30;3.00;;;7.90;61.90;;;7.12;44.80;94919.03;5035873;28;20234;-80
2021/05/09 02:32:20;;;;;;;4.90;3.35;;;7.90;62.20;;;7.08;45.09;94921.19;5068774;28;20237;-81
2021/05/09 02:34:46;;;;;;;3.38;2.80;;;7.80;62.10;;;7.02;44.66;94921.84;5069767;28;20225;-81
2021/05/09 02:37:13;;;;;;;4.15;3.28;;;7.80;62.00;;;6.98;45.00;94917.94;5053405;28;20557;-79
2021/05/09 02:39:40;;;;;;;4.63;3.20;;;7.80;62.10;;;6.95;44.88;94916.50;5047540;28;20226;-79
2021/05/09 02:42:07;;;;;;;4.18;3.00;;;7.70;62.10;;;6.94;45.07;94922.69;5035747;28;20231;-80
2021/05/09 02:44:34;;;;;;;4.13;3.47;;;7.70;62.20;;;6.93;45.37;94920.25;5035570;28;20302;-79
2021/05/09 02:47:00;;;;;;;4.25;3.35;;;7.70;62.30;;;6.90;45.30;94918.78;5053010;28;20203;-81
2021/05/09 02:49:29;;;;;;;3.97;3.42;;;7.70;62.40;;;6.89;45.51;94925.78;5049563;28;20690;-81
2021/05/09 02:51:59;;;;;;;4.57;3.40;;;7.60;62.50;;;6.88;45.51;94923.34;5017077;28;20282;-81
2021/05/09 02:54:26;;;;;;;3.83;3.42;;;7.60;62.50;;;6.88;45.50;94925.97;5030577;28;20642;-80
2021/05/09 02:56:53;;;;;;;5.43;3.90;;;7.60;62.70;;;6.85;45.43;94923.72;5016654;28;20204;-81
2021/05/09 02:59:20;;;;;;;5.20;4.07;;;7.60;62.70;;;6.89;45.77;94923.19;5032822;28;20647;-80
2021/05/09 03:01:47;;;;;;;5.03;3.72;;;7.60;62.80;;;6.87;45.51;94911.31;5039341;28;20227;-80
2021/05/09 03:04:14;;;;;;;5.57;3.92;;;7.50;62.80;;;6.92;45.62;94919.44;5051152;28;20195;-79
2021/05/09 03:06:42;;;;;;;4.75;3.55;;;7.60;63.80;;;6.92;45.45;94919.44;5036973;28;20608;-81
2021/05/09 03:09:11;;;;;;;4.43;3.83;;;7.60;62.80;;;6.91;45.23;94920.44;5020696;28;20309;-79
2021/05/09 03:11:40;;;;;;;4.45;4.00;;;7.60;62.80;;;6.94;45.31;94930.50;5035415;28;20214;-79
2021/05/09 03:14:07;;;;;;;5.40;4.40;;;7.60;62.90;;;6.95;45.48;94932.13;5055363;28;20223;-81
2021/05/09 03:16:33;;;;;;;5.68;3.97;;;7.60;62.90;;;6.95;45.23;94929.53;5033332;28;20588;-81
2021/05/09 03:19:00;;;;;;;4.72;3.85;;;7.60;62.90;;;6.96;45.59;94938.97;5033548;28;20323;-80
2021/05/09 03:21:26;;;;;;;4.95;4.00;;;7.60;63.00;;;6.95;45.46;94936.56;5061713;28;20219;-81
2021/05/09 03:23:53;;;;;;;5.68;3.95;;;7.60;63.00;;;6.95;45.22;94941.75;5053114;28;20693;-81
2021/05/09 03:26:19;;;;;;;4.35;3.85;;;7.60;63.00;;;6.95;45.67;94941.75;5053979;28;20612;-80
2021/05/09 03:28:46;;;;;;;6.18;4.15;;;7.60;63.00;;;6.94;45.64;94940.13;5037093;28;20226;-80
2021/05/09 03:31:12;;;;;;;7.88;4.18;;;7.60;63.10;;;6.93;46.26;94941.09;5060217;28;20713;-80
2021/05/09 03:33:39;;;;;;;6.32;3.97;;;7.60;63.20;;;6.90;46.12;94934.44;5029096;28;20215;-80
2021/05/09 03:36:07;;;;;;;5.45;4.15;;;7.60;63.40;;;6.92;46.31;94931.66;5052370;28;20347;-80
2021/05/09 03:38:34;;;;;;;6.15;4.20;;;7.60;63.40;;;6.89;46.14;94928.41;5069709;28;20298;-80
2021/05/09 03:41:00;;;;;;;7.45;4.72;;;7.60;63.40;;;6.93;46.45;94933.28;5037345;28;20207;-79
2021/05/09 03:43:27;;;;;;;5.20;4.05;;;7.50;63.50;;;6.97;46.39;94939.78;5036616;28;20292;-81
2021/05/09 03:45:54;;;;;;;6.13;4.53;;;7.50;63.60;;;6.99;46.17;94937.81;5069506;28;20217;-81
2021/05/09 03:48:20;;;;;;;6.07;4.40;;;7.50;63.60;;;7.04;46.37;94933.75;5036586;28;20222;-81
2021/05/09 03:50:47;;;;;;;6.40;3.97;;;7.60;63.80;;;7.07;46.06;94937.81;5051763;28;20203;-80
2021/05/09 03:53:16;;;;;;;5.88;4.32;;;7.60;63.80;;;7.19;46.06;94946.06;5034872;28;20311;-80
2021/05/09 03:55:43;;;;;;;5.72;3.80;;;7.60;64.30;;;7.23;46.16;94955.19;5035700;28;20231;-81
2021/05/09 03:58:09;;;;;;;4.72;4.20;;;7.70;63.80;;;7.29;45.90;94959.72;5043955;28;20274;-80
2021/05/09 04:00:36;;;;;;;4.93;4.25;;;7.70;63.90;;;7.34;45.99;94960.00;5041169;28;20219;-81
2021/05/09 04:03:02;;;;;;;7.15;4.07;;;7.80;63.90;;;7.41;46.31;94959.31;5036022;28;20250;-81
2021/05/09 04:05:29;;;;;;;4.40;3.80;;;7.80;64.00;;;7.43;46.27;94952.94;5053332;28;20252;-81
2021/05/09 04:07:55;;;;;;;5.25;3.90;;;7.90;64.10;;;7.51;45.97;94952.13;5054611;28;20227;-81
2021/05/09 04:10:22;;;;;;;5.38;4.20;;;7.90;64.10;;;7.60;46.03;94961.50;5035327;28;20219;-81
2021/05/09 04:12:50;;;;;;;4.43;3.88;;;7.90;64.20;;;7.69;46.26;94959.69;5019055;28;20223;-81
2021/05/09 04:15:17;;;;;;;4.95;4.20;;;8.00;64.20;;;7.76;45.90;94968.44;5053893;28;20671;-81
2021/05/09 04:17:44;;;;;;;5.38;4.28;;;8.10;64.20;;;7.83;45.94;94971.97;5071753;28;20298;-80
2021/05/09 04:20:11;;;;;;;6.25;4.38;;;8.10;64.20;;;7.90;46.45;94966.06;5034624;28;20204;-81
2021/05/09 04:22:38;;;;;;;5.35;4.32;;;8.20;64.40;;;7.94;46.04;94970.75;5032435;28;20276;-81
2021/05/09 04:25:05;;;;;;;6.47;4.30;;;8.30;64.40;;;7.99;46.53;94968.44;5054997;28;20199;-81
2021/05/09 04:27:31;;;;;;;5.28;4.30;;;8.30;64.30;;;8.02;46.02;94965.50;5037650;28;20315;-81
2021/05/09 04:29:58;;;;;;;5.72;4.43;;;8.40;64.30;;;8.07;46.26;94964.97;5038463;28;20203;-80
2021/05/09 04:32:26;;;;;;;7.20;5.05;;;8.40;64.20;;;8.10;46.36;94966.41;5035812;28;20220;-80
2021/05/09 04:34:53;;;;;;;8.40;5.63;;;8.50;64.30;;;8.14;46.33;94957.22;5034686;28;20234;-81
2021/05/09 04:37:20;;;;;;;5.72;4.68;;;8.50;64.30;;;8.22;46.20;94956.38;5036055;28;20321;-80
2021/05/09 04:39:48;;;;;;;6.97;4.70;;;8.60;64.40;;;8.26;46.05;94953.22;5071659;28;20578;-81
2021/05/09 04:42:15;;;;;;;6.10;4.78;;;8.60;64.40;;;8.32;46.47;94952.53;5039643;28;20231;-82
2021/05/09 04:44:42;;;;;;;5.60;4.63;;;8.70;64.40;;;8.35;45.89;94946.13;5033402;28;20215;-81
2021/05/09 04:47:08;;;;;;;6.32;4.72;;;8.70;64.40;;;8.42;46.10;94951.44;5040415;28;20203;-81
2021/05/09 04:49:34;;;;;;;6.38;4.65;;;8.80;64.50;;;8.48;46.27;94946.38;5053879;28;20495;-81
2021/05/09 04:52:01;;;;;;;6.40;5.38;;;8.80;64.50;;;8.55;46.17;94948.28;5052354;28;20199;-81
2021/05/09 04:54:27;;;;;;;7.15;5.45;;;8.90;64.60;;;8.57;46.57;94941.88;5042661;28;20722;-81
2021/05/09 04:56:54;;;;;;;7.47;5.75;;;8.90;64.60;;;8.67;46.22;94952.06;5050599;28;20212;-80
2021/05/09 04:59:21;;;;;;;8.15;5.88;;;8.90;64.60;;;8.73;46.47;94948.75;5051162;28;20219;-81
2021/05/09 05:01:47;;;;;;;8.43;5.50;;;9.00;64.70;;;8.77;46.64;94938.72;5053725;28;20229;-81
2021/05/09 05:04:14;;;;;;;6.20;5.15;;;9.10;64.80;;;8.84;46.64;94936.19;5069923;28;20199;-81
2021/05/09 05:06:40;;;;;;;6.07;5.05;;;9.10;64.80;;;8.89;46.56;94928.66;5034322;28;20211;-81
2021/05/09 05:09:07;;;;;;;7.10;5.35;;;9.20;64.80;;;8.95;46.67;94933.94;5034426;28;20223;-80
2021/05/09 05:11:33;;;;;;;7.18;5.13;;;9.20;64.80;;;9.00;46.77;94935.22;5035906;28;20234;-80
2021/05/09 05:13:59;;;;;;;7.45;5.35;;;9.30;64.80;;;9.05;46.75;94941.53;5027068;28;20231;-80
2021/05/09 05:16:26;;;;;;;8.65;5.82;;;9.40;65.00;;;9.11;46.74;94945.22;5053975;28;20214;-80
2021/05/09 05:18:52;;;;;;;7.68;5.78;;;9.40;64.80;;;9.15;46.67;94938.63;5037327;28;20219;-80
2021/05/09 05:21:19;;;;;;;6.50;5.22;;;9.40;64.80;;;9.21;46.77;94942.34;5035303;28;20297;-80
2021/05/09 05:23:46;;;;;;;6.75;5.40;;;9.50;64.90;;;9.25;46.79;94944.41;5015594;28;20238;-81
2021/05/09 05:26:12;;;;;;;5.68;4.78;;;9.50;64.90;;;9.33;46.57;94942.69;5031922;28;20234;-80
2021/05/09 05:28:38;;;;;;;6.35;5.47;;;9.60;65.00;;;9.38;47.05;94935.88;5048866;28;20223;-81
2021/05/09 05:31:05;;;;;;;7.47;5.07;;;9.60;65.00;;;9.43;46.91;94930.91;5041327;28;20199;-81
2021/05/09 05:33:35;;;;;;;5.68;5.00;;;9.70;65.10;;;9.54;46.83;94932.22;5049622;28;20216;-81
2021/05/09 05:36:04;;;;;;;6.60;4.70;;;9.80;65.30;;;9.65;46.90;94935.38;5034562;28;20195;-81
2021/05/09 05:38:31;;;;;;;6.43;4.80;;;9.80;65.30;;;9.73;47.17;94936.06;5070735;28;20207;-82
2021/05/09 05:40:58;;;;;;;5.43;4.65;;;9.90;65.10;;;9.82;46.83;94934.13;5053451;28;20219;-81
2021/05/09 05:43:28;;;;;;;5.95;4.78;;;10.00;63.90;;;9.91;47.17;94943.50;5036405;28;20235;-82
2021/05/09 05:45:56;;;;;;;7.25;5.30;;;10.10;64.00;;;9.98;47.14;94950.63;5037520;28;20211;-80
2021/05/09 05:48:24;;;;;;;5.43;4.68;;;10.10;63.90;;;10.09;46.88;94952.75;5037271;28;20253;-82
2021/05/09 05:50:52;;;;;;;6.05;5.20;;;10.20;64.90;;;10.16;46.76;94960.69;5037238;28;20199;-81
2021/05/09 05:53:29;;;;;;;6.93;4.72;;;10.30;64.20;;;10.25;47.12;94954.28;5035610;28;20256;-80
2021/05/09 05:55:56;;;;;;;5.63;5.03;;;10.40;64.70;;;10.34;46.99;94953.16;5052274;28;20638;-81
2021/05/09 05:58:23;;;;;;;5.70;4.97;;;10.50;64.20;;;10.42;46.97;94949.63;5053730;28;20605;-80
2021/05/09 06:00:50;;;;;;;5.78;4.80;;;10.50;64.20;;;10.53;47.00;94950.91;5052481;28;20226;-82
2021/05/09 06:03:18;;;;;;;5.63;4.47;;;10.60;64.20;;;10.65;46.58;94954.63;5032885;28;20345;-82
2021/05/09 06:05:46;;;;;;;5.13;4.53;;;10.70;65.10;;;10.72;46.79;94947.63;5032838;28;20222;-82
2021/05/09 06:08:16;;;;;;;5.32;4.75;;;10.80;64.40;;;10.83;46.87;94946.28;5037023;28;20226;-81
2021/05/09 06:10:43;;;;;;;5.07;3.95;;;10.90;64.40;;;10.96;47.42;94952.59;5020705;28;20222;-82
2021/05/09 06:13:10;;;;;;;4.55;4.07;;;11.00;64.50;;;11.06;46.67;94955.72;5029926;28;20227;-82
2021/05/09 06:15:37;;;;;;;6.40;4.97;;;11.10;64.40;;;11.16;47.30;94956.16;5036450;28;20228;-80
2021/05/09 06:18:05;;;;;;;4.75;4.22;;;11.20;64.40;;;11.29;46.83;94951.97;5053015;28;20218;-82
2021/05/09 06:20:32;;;;;;;6.50;4.57;;;11.30;64.40;;;11.37;46.75;94949.19;5067813;28;20248;-81
2021/05/09 06:23:03;;;;;;;5.07;4.57;;;11.40;64.40;;;11.46;46.81;94953.28;5019611;28;20214;-81
2021/05/09 06:25:31;;;;;;;6.40;4.10;;;11.50;64.60;;;11.54;46.73;94947.84;5033239;28;20233;-82
2021/05/09 06:27:58;;;;;;;4.40;3.90;;;11.60;64.40;;;11.61;46.86;94939.16;5033898;28;20218;-82
2021/05/09 06:30:24;;;;;;;6.65;4.18;;;11.70;64.40;;;11.71;46.79;94939.59;5020460;28;20702;-81
2021/05/09 06:32:52;;;;;;;4.53;4.13;;;11.70;64.30;;;11.87;46.95;94945.53;5036520;28;20214;-81
2021/05/09 06:35:19;;;;;;;4.68;4.10;;;11.80;64.40;;;11.98;46.74;94945.75;5036772;28;20225;-81
2021/05/09 06:37:46;;;;;;;4.75;4.20;;;12.00;64.40;;;12.04;46.83;94933.66;5052995;28;20696;-82
2021/05/09 06:40:12;;;;;;;4.63;3.90;;;12.10;64.60;;;12.26;46.81;94949.25;5060663;28;20261;-81
2021/05/09 06:42:39;;;;;;;6.57;4.57;;;12.10;64.60;;;12.37;46.98;94950.47;5019819;28;20229;-81
2021/05/09 06:45:11;;;;;;;5.43;4.28;;;12.30;64.70;;;12.52;46.88;94950.25;5018449;28;20245;-82
2021/05/09 06:47:40;;;;;;;5.57;4.25;;;12.40;64.70;;;12.60;46.84;94945.59;5039795;28;20219;-81
2021/05/09 06:50:08;;;;;;;6.88;5.07;;;12.50;64.80;;;12.77;47.35;94946.00;5055412;28;20195;-81
2021/05/09 06:52:34;;;;;;;6.57;5.13;;;12.60;64.80;;;12.90;46.82;94945.16;5022829;28;20363;-81
2021/05/09 06:55:03;;;;;;;6.55;4.85;;;12.70;64.80;;;13.05;47.31;94944.09;5039771;28;20213;-82
2021/05/09 06:57:29;;;;;;;5.80;4.68;;;12.90;65.00;;;13.20;46.95;94949.16;5048640;28;20235;-80
2021/05/09 06:59:56;;;;;;;9.98;5.22;;;13.00;64.80;;;13.32;46.80;94938.75;5038976;28;20202;-82
2021/05/09 07:02:23;;;;;;;8.18;4.85;;;13.20;65.10;;;13.47;46.89;94941.19;5039553;28;20234;-81
2021/05/09 07:04:50;;;;;;;8.13;4.63;;;13.20;64.70;;;13.58;47.00;94935.25;5042400;28;20210;-81
2021/05/09 07:07:17;;;;;;;5.68;4.22;;;13.40;64.80;;;13.73;46.81;94937.59;5036014;28;20285;-81
2021/05/09 07:09:43;;;;;;;5.15;4.22;;;13.50;64.80;;;13.87;46.60;94938.38;5004512;28;20195;-80
2021/05/09 07:12:10;;;;;;;5.25;4.57;;;13.60;64.70;;;14.00;46.50;94940.09;5075365;28;20223;-80
2021/05/09 07:14:37;;;;;;;5.53;4.47;;;13.80;64.60;;;14.18;46.26;94942.03;5019826;28;20211;-82
2021/05/09 07:17:03;;;;;;;5.13;4.32;;;14.00;64.70;;;14.30;46.26;94953.50;5036023;28;20209;-81
2021/05/09 07:19:30;;;;;;;5.53;3.90;;;14.00;64.30;;;14.41;45.83;94944.91;5029230;28;20218;-81
2021/05/09 07:22:00;;;;;;;5.97;3.83;;;14.10;64.20;;;14.52;45.84;94934.66;5039404;28;20229;-80
2021/05/09 07:24:26;;;;;;;4.90;3.85;;;14.30;64.30;;;14.66;45.81;94935.38;5071763;28;20199;-81
2021/05/09 07:26:53;;;;;;;4.20;3.80;;;14.40;64.20;;;14.78;46.01;94932.84;5039185;28;20233;-82
2021/05/09 07:29:19;;;;;;;4.20;3.80;;;14.50;64.30;;;14.92;45.63;94931.69;5037906;28;20732;-82
2021/05/09 07:31:46;;;;;;;4.03;3.55;;;14.60;64.20;;;15.05;45.42;94933.41;5055185;28;20220;-82
2021/05/09 07:34:14;;;;;;;4.05;3.72;;;14.80;65.20;;;15.16;45.73;94929.22;5071323;28;20313;-81
2021/05/09 07:36:41;;;;;;;7.25;4.32;;;14.90;64.20;;;15.33;45.39;94937.34;5039418;28;20206;-81
2021/05/09 07:39:08;;;;;;;3.78;3.45;;;15.00;64.00;;;15.45;45.22;94929.50;5038956;28;20306;-81
2021/05/09 07:41:35;;;;;;;4.50;3.78;;;15.20;64.20;;;15.61;45.33;94939.47;5038783;28;20268;-81
2021/05/09 07:44:04;;;;;;;7.32;5.22;;;15.20;64.90;;;15.74;45.15;94935.84;5029155;28;20223;-79
2021/05/09 07:46:31;;;;;;;5.13;4.32;;;15.40;64.20;;;15.89;45.21;94932.81;5042824;28;20199;-80
2021/05/09 07:48:58;;;;;;;4.90;3.88;;;15.50;64.00;;;16.02;45.10;94925.75;5038856;28;20232;-80
2021/05/09 07:51:25;;;;;;;4.30;3.40;;;15.60;64.00;;;16.19;45.04;94933.88;5055324;28;20260;-80
2021/05/09 07:53:51;;;;;;;3.90;3.50;;;15.80;63.90;;;16.32;44.90;94929.16;5037715;28;20742;-81
2021/05/09 07:56:19;;;;;;;4.78;3.60;;;15.90;63.80;;;16.51;44.59;94928.28;5037563;28;20207;-81
2021/05/09 07:58:46;;;;;;;4.78;3.63;;;16.10;63.60;;;16.64;44.47;94926.22;5021579;28;20264;-82
2021/05/09 08:01:12;;;;;;;3.78;3.15;;;16.20;63.60;;;16.82;44.33;94924.50;5038400;28;20238;-81
2021/05/09 08:03:40;;;;;;;3.15;2.85;;;16.30;63.30;;;16.97;43.93;94924.06;5027764;28;20230;-81
2021/05/09 08:06:07;;;;;;;2.45;2.25;;;16.50;63.10;;;17.10;43.42;94928.28;5038204;28;20194;-81
2021/05/09 08:08:34;;;;;;;3.35;2.22;;;16.60;62.80;;;17.24;43.91;94924.38;5036132;28;20238;-81
2021/05/09 08:11:01;;;;;;;3.13;2.85;;;16.80;63.00;;;17.37;43.42;94923.31;5044359;28;20198;-81
2021/05/09 08:13:27;;;;;;;3.65;2.72;;;16.90;62.70;;;17.51;43.21;94926.50;5038538;28;20222;-80
2021/05/09 08:15:54;;;;;;;2.85;2.55;;;17.10;62.60;;;17.65;42.72;94919.09;5022046;28;20218;-81
2021/05/09 08:18:25;;;;;;;3.25;2.95;;;17.20;62.40;;;17.78;42.70;94923.28;5036989;28;20703;-81
2021/05/09 08:20:55;;;;;;;3.92;3.03;;;17.30;62.20;;;17.90;42.60;94920.59;5019276;28;20254;-80
2021/05/09 08:23:22;;;;;;;2.95;2.45;;;17.40;61.90;;;18.02;42.20;94920.59;5055631;28;20692;-82
2021/05/09 08:25:49;;;;;;;2.75;2.53;;;17.60;62.10;;;18.10;42.13;94914.06;5071090;28;20579;-82
2021/05/09 08:28:16;;;;;;;7.97;2.58;;;17.70;61.70;;;18.19;41.46;94915.31;5066388;28;20664;-81
2021/05/09 08:30:42;;;;;;;2.28;1.80;;;17.80;61.80;;;18.31;41.12;94923.19;5054968;28;20198;-81
2021/05/09 08:33:09;;;;;;;2.53;2.28;;;17.90;61.40;;;18.42;40.91;94922.31;5037644;28;20215;-81
2021/05/09 08:35:36;;;;;;;2.25;2.05;;;18.00;61.00;;;18.51;40.82;94918.22;5053953;28;20274;-81
2021/05/09 08:38:04;;;;;;;2.67;2.00;;;18.10;60.80;;;18.64;40.62;94919.75;5020773;28;20214;-82
2021/05/09 08:40:31;;;;;;;2.28;2.08;;;18.20;60.90;;;18.78;40.13;94917.56;5021793;28;20664;-82
2021/05/09 08:42:59;;;;;;;2.10;1.90;;;18.40;60.90;;;18.91;40.36;94911.13;5054366;28;20214;-81
2021/05/09 08:45:25;;;;;;;2.67;2.47;;;18.40;60.50;;;19.02;39.86;94912.09;5043863;28;20203;-82
2021/05/09 08:47:54;;;;;;;2.25;2.05;;;18.50;60.40;;;19.11;39.57;94899.97;5018142;28;20223;-81
2021/05/09 08:50:25;;;;;;;2.15;1.95;;;18.70;61.20;;;19.25;39.88;94907.59;5002279;28;20208;-82
2021/05/09 08:52:53;;;;;;;1.95;1.77;;;18.80;60.60;;;19.35;39.49;94911.19;5035810;28;20313;-80
2021/05/09 08:55:28;;;;;;;2.00;1.80;;;18.80;60.10;;;19.45;39.74;94913.16;5044631;28;20556;-82
2021/05/09 08:57:58;;;;;;;2.28;2.08;;;19.00;60.10;;;19.54;39.64;94900.22;5071119;28;20720;-82
2021/05/09 09:00:25;;;;;;;2.58;2.10;;;19.10;59.90;;;19.64;39.22;94900.34;5054255;28;20261;-82
2021/05/09 09:02:58;;;;;;;3.70;1.98;;;19.20;59.70;;;19.77;39.00;94906.34;5069627;28;20218;-81
2021/05/09 09:05:40;;;;;;;2.78;1.95;;;19.30;60.00;;;19.84;39.32;94904.31;5053349;28;20198;-81
2021/05/09 09:08:10;;;;;;;2.28;2.08;;;19.40;59.60;;;19.93;39.08;94897.50;5053108;28;20222;-81
2021/05/09 09:10:49;;;;;;;2.05;1.90;;;19.50;60.00;;;19.99;39.15;94896.50;5035273;28;20199;-81
2021/05/09 09:13:33;;;;;;;3.17;2.30;;;19.60;59.80;;;20.07;39.03;94895.22;5038349;28;20234;-82
2021/05/09 09:16:03;;;;;;;2.80;2.30;;;19.60;59.60;;;20.13;39.21;94899.53;5035793;28;20209;-82
2021/05/09 09:18:42;;;;;;;2.63;2.42;;;19.70;59.80;;;20.21;39.41;94900.94;5054326;28;20296;-81
2021/05/09 09:21:30;;;;;;;3.22;2.40;;;19.80;60.00;;;20.30;39.38;94906.63;5053477;28;20233;-81
2021/05/09 09:24:06;;;;;;;3.08;2.40;;;19.90;59.90;;;20.37;39.59;94906.41;5052763;28;20231;-82
2021/05/09 09:26:50;;;;;;;2.95;2.65;;;20.00;59.80;;;20.41;39.56;94905.66;5053617;28;20206;-81
2021/05/09 09:29:21;;;;;;;2.75;2.55;;;20.00;59.90;;;20.48;39.22;94905.41;5054008;28;20191;-83
2021/05/09 09:31:55;;;;;;;2.58;2.20;;;20.10;59.80;;;20.55;38.95;94898.03;5053589;28;20209;-83
2021/05/09 09:34:36;;;;;;;4.25;2.70;;;20.20;59.70;;;20.60;39.06;94900.75;5037304;28;20202;-82
2021/05/09 09:37:03;;;;;;;2.72;2.50;;;20.20;59.50;;;20.67;38.57;94911.16;5070689;28;20256;-82
2021/05/09 09:39:48;;;;;;;4.35;2.88;;;20.30;59.40;;;20.73;38.75;94907.50;5053535;28;20599;-83
2021/05/09 09:42:34;;;;;;;2.72;2.50;;;20.30;59.30;;;20.79;38.85;94903.81;5052210;28;20218;-82
2021/05/09 09:45:13;;;;;;;6.50;2.75;;;20.40;59.40;;;20.89;38.92;94902.28;5020864;28;20217;-82
2021/05/09 09:47:54;;;;;;;3.80;2.65;;;20.50;59.30;;;20.95;38.97;94895.94;5031772;28;20486;-82
2021/05/09 09:50:46;;;;;;;2.85;2.40;;;20.60;59.20;;;20.99;38.78;94893.56;5029042;28;20669;-82
2021/05/09 09:53:32;;;;;;;2.95;2.40;;;20.60;59.10;;;21.07;38.81;94895.75;5010729;28;20233;-82
2021/05/09 09:56:11;;;;;;;2.75;2.50;;;20.70;59.10;;;21.13;38.66;94896.56;5048907;28;20219;-83
2021/05/09 09:58:52;;;;;;;5.05;3.20;;;20.80;59.00;;;21.19;38.68;94893.66;5014011;28;20575;-81
2021/05/09 10:01:27;;;;;;;2.80;2.60;;;20.80;59.30;;;21.27;38.58;94889.69;4942531;28;20695;-81
2021/05/09 10:03:57;;;;;;;3.05;2.70;;;20.90;58.70;;;21.31;38.34;94890.75;4873298;29;20226;-82
2021/05/09 10:06:25;;;;;;;2.75;2.45;;;20.90;58.90;;;21.38;38.38;94890.53;4669233;30;20284;-81
2021/05/09 10:10:44;;;;;;;2.78;2.30;;;21.00;59.10;;;21.52;38.72;94888.19;5150370;27;20637;-81
2021/05/09 10:13:12;;;;;;;3.72;2.58;;;21.10;59.20;;;21.61;38.45;94878.66;5103989;28;20301;-81
2021/05/09 10:15:38;;;;;;;2.63;2.42;;;21.20;58.70;;;21.68;38.28;94879.19;5088087;27;20241;-82
2021/05/09 10:18:06;;;;;;;3.45;2.60;;;21.20;58.70;;;21.77;38.09;94881.38;5067590;28;20244;-82
2021/05/09 10:20:33;;;;;;;4.65;2.92;;;21.30;58.50;;;21.78;37.84;94870.41;5044002;28;20724;-81
2021/05/09 10:23:05;;;;;;;2.55;2.35;;;21.40;58.40;;;21.89;37.76;94873.91;4982443;28;20222;-82
2021/05/09 10:25:59;;;;;;;3.55;2.22;;;21.40;58.10;;;21.93;38.23;94874.19;4868747;29;20217;-82
2021/05/09 10:28:37;;;;;;;2.60;2.20;;;21.50;58.30;;;21.99;37.47;94867.78;4695410;30;20234;-81
2021/05/09 10:31:28;;;;;;;2.78;2.50;;;21.60;58.40;;;22.08;38.00;94863.50;5150086;27;20385;-83
2021/05/09 10:33:58;;;;;;;3.75;3.30;;;21.70;58.50;;;22.16;37.73;94862.19;5084093;28;20216;-81
2021/05/09 10:36:24;;;;;;;4.32;3.05;;;21.70;58.30;;;22.21;37.63;94863.00;5048463;28;20684;-82